createdAt,value
2023-04-21T00:00:09.928Z,24.75
2023-04-21T00:05:10.622Z,23.73
2023-04-21T00:07:38.301Z,23.05
2023-04-21T00:10:07.244Z,25.00
2023-04-21T00:12:34.647Z,26.88
2023-04-21T00:15:01.982Z,27.77
2023-04-21T00:17:29.422Z,24.77
2023-04-21T00:19:56.816Z,27.00
2023-04-21T00:22:24.077Z,28.23
2023-04-21T00:24:51.311Z,27.48
2023-04-21T00:27:18.509Z,26.55
2023-04-21T00:29:45.878Z,24.98
2023-04-21T00:32:13.193Z,28.60
2023-04-21T00:34:40.492Z,27.77
2023-04-21T00:37:07.862Z,30.80
2023-04-21T00:39:35.166Z,27.90
2023-04-21T00:42:02.452Z,28.38
2023-04-21T00:44:29.756Z,28.05
2023-04-21T00:46:57.977Z,32.08
2023-04-21T00:49:26.333Z,27.83
2023-04-21T00:51:54.233Z,32.57
2023-04-21T00:54:25.648Z,32.65
2023-04-21T00:56:54.499Z,29.58
2023-04-21T00:59:21.744Z,31.45
2023-04-21T01:01:48.996Z,34.53
2023-04-21T01:04:16.405Z,35.08
2023-04-21T01:06:43.779Z,30.20
2023-04-21T01:09:12.726Z,33.67
2023-04-21T01:11:40.075Z,33.33
2023-04-21T01:14:08.289Z,34.53
2023-04-21T01:16:37.561Z,33.85
2023-04-21T01:21:42.989Z,37.10
2023-04-21T01:24:11.592Z,35.30
2023-04-21T01:26:38.896Z,36.78
2023-04-21T01:29:06.680Z,38.00
2023-04-21T01:31:34.058Z,33.80
2023-04-21T01:34:04.081Z,37.00
2023-04-21T01:36:31.917Z,35.05
2023-04-21T01:38:59.179Z,38.35
2023-04-21T01:41:26.422Z,33.28
2023-04-21T01:43:55.003Z,36.92
2023-04-21T01:46:24.627Z,38.15
2023-04-21T01:48:51.930Z,35.95
2023-04-21T01:51:19.407Z,38.70
2023-04-21T01:53:46.624Z,43.75
2023-04-21T01:56:16.981Z,37.00
2023-04-21T01:58:44.185Z,38.72
2023-04-21T02:01:11.539Z,38.53
2023-04-21T02:03:39.083Z,40.67
2023-04-21T02:06:08.613Z,41.00
2023-04-21T02:08:35.936Z,42.63
2023-04-21T02:11:03.206Z,39.45
2023-04-21T02:13:30.473Z,37.58
2023-04-21T02:16:09.599Z,40.17
2023-04-21T02:18:40.378Z,41.00
2023-04-21T02:21:07.653Z,41.20
2023-04-21T02:23:34.929Z,44.53
2023-04-21T02:26:02.233Z,42.30
2023-04-21T02:28:32.732Z,40.22
2023-04-21T02:31:00.321Z,42.85
2023-04-21T02:33:27.941Z,40.33
2023-04-21T02:35:55.272Z,38.15
2023-04-21T02:38:25.071Z,41.00
2023-04-21T02:40:52.371Z,46.10
2023-04-21T02:43:19.790Z,44.47
2023-04-21T02:45:48.960Z,44.63
2023-04-21T02:48:17.270Z,44.10
2023-04-21T02:50:45.005Z,38.15
2023-04-21T02:53:12.298Z,48.30
2023-04-21T02:55:39.648Z,47.28
2023-04-21T02:58:07.248Z,44.53
2023-04-21T03:00:34.662Z,46.50
2023-04-21T03:03:02.228Z,49.10
2023-04-21T03:05:29.595Z,47.92
2023-04-21T03:07:57.017Z,45.63
2023-04-21T03:10:24.306Z,49.95
2023-04-21T03:12:51.648Z,48.10
2023-04-21T03:15:19.532Z,48.17
2023-04-21T03:17:46.866Z,44.85
2023-04-21T03:20:14.300Z,52.58
2023-04-21T03:22:41.629Z,52.00
2023-04-21T03:25:08.952Z,45.20
2023-04-21T03:27:36.245Z,49.13
2023-04-21T03:30:04.536Z,50.58
2023-04-21T03:32:31.948Z,47.42
2023-04-21T03:34:59.268Z,49.85
2023-04-21T03:37:26.648Z,50.08
2023-04-21T03:39:54.001Z,50.45
2023-04-21T03:42:21.312Z,49.20
2023-04-21T03:44:49.659Z,49.10
2023-04-21T03:47:17.641Z,47.33
2023-04-21T03:49:44.891Z,50.53
2023-04-21T03:52:12.215Z,49.78
2023-04-21T03:54:39.426Z,49.42
2023-04-21T03:57:07.056Z,50.40
2023-04-21T03:59:34.333Z,52.72
2023-04-21T04:02:01.655Z,54.22
2023-04-21T04:04:29.167Z,46.88
2023-04-21T04:06:56.612Z,49.60
2023-04-21T04:09:24.187Z,48.35
2023-04-21T04:11:51.468Z,48.45
2023-04-21T04:14:18.728Z,54.03
2023-04-21T04:16:46.038Z,49.63
2023-04-21T04:19:13.621Z,49.50
2023-04-21T04:21:40.921Z,47.03
2023-04-21T04:24:08.932Z,48.65
2023-04-21T04:26:38.386Z,51.28
2023-04-21T04:29:10.437Z,51.03
2023-04-21T04:31:37.823Z,52.25
2023-04-21T04:34:05.194Z,52.80
2023-04-21T04:36:33.405Z,42.13
2023-04-21T04:39:00.662Z,45.83
2023-04-21T04:41:30.666Z,45.30
2023-04-21T04:44:00.921Z,49.13
2023-04-21T04:46:28.532Z,44.22
2023-04-21T04:48:55.843Z,46.17
2023-04-21T04:51:25.837Z,41.97
2023-04-21T04:53:53.050Z,44.78
2023-04-21T04:56:20.266Z,47.20
2023-04-21T04:58:47.525Z,45.38
2023-04-21T05:01:15.942Z,43.72
2023-04-21T05:03:43.925Z,44.87
2023-04-21T05:06:11.496Z,43.55
2023-04-21T05:08:40.146Z,46.40
2023-04-21T05:11:07.649Z,40.58
2023-04-21T05:13:35.429Z,42.67
2023-04-21T05:16:03.355Z,45.50
2023-04-21T05:18:30.795Z,43.47
2023-04-21T05:20:58.105Z,43.10
2023-04-21T05:23:25.483Z,49.58
2023-04-21T05:25:52.707Z,47.25
2023-04-21T05:28:20.160Z,45.58
2023-04-21T05:30:47.417Z,44.38
2023-04-21T05:33:14.885Z,47.38
2023-04-21T05:35:42.184Z,47.78
2023-04-21T05:38:09.414Z,45.58
2023-04-21T05:40:36.806Z,47.97
2023-04-21T05:43:04.029Z,47.85
2023-04-21T05:45:31.377Z,47.90
2023-04-21T05:47:58.703Z,52.28
2023-04-21T05:50:28.581Z,48.40
2023-04-21T05:52:56.177Z,50.72
2023-04-21T05:55:23.435Z,47.95
2023-04-21T05:57:50.695Z,60.42
2023-04-21T06:00:18.029Z,53.50
2023-04-21T06:02:45.628Z,56.97
2023-04-21T06:05:12.954Z,58.08
2023-04-21T06:07:40.378Z,59.25
2023-04-21T06:10:07.898Z,57.80
2023-04-21T06:12:35.338Z,56.75
2023-04-21T06:15:02.736Z,58.60
2023-04-21T06:17:29.969Z,54.80
2023-04-21T06:19:57.302Z,64.05
2023-04-21T06:22:24.607Z,54.25
2023-04-21T06:24:51.981Z,59.90
2023-04-21T06:27:19.280Z,56.95
2023-04-21T06:29:46.511Z,67.93
2023-04-21T06:32:13.801Z,63.28
2023-04-21T06:34:41.092Z,61.65
2023-04-21T06:37:08.359Z,62.70
2023-04-21T06:39:35.643Z,61.25
2023-04-21T06:42:03.341Z,61.67
2023-04-21T06:44:32.362Z,62.05
2023-04-21T06:46:59.616Z,64.78
2023-04-21T06:49:26.858Z,63.97
2023-04-21T06:51:54.137Z,66.75
2023-04-21T06:54:21.393Z,66.82
2023-04-21T06:56:51.253Z,69.15
2023-04-21T06:59:18.683Z,66.97
2023-04-21T07:01:48.990Z,70.68
2023-04-21T07:04:16.540Z,65.60
2023-04-21T07:06:43.850Z,69.43
2023-04-21T07:09:11.073Z,68.55
2023-04-21T07:11:38.336Z,71.20
2023-04-21T07:14:06.592Z,74.05
2023-04-21T07:16:33.884Z,72.78
2023-04-21T07:19:01.685Z,70.13
2023-04-21T07:21:30.974Z,73.32
2023-04-21T07:26:25.918Z,81.13
2023-04-21T07:28:53.449Z,83.15
2023-04-21T07:31:20.795Z,74.25
2023-04-21T07:33:48.054Z,73.57
2023-04-21T07:36:15.710Z,68.80
2023-04-21T07:38:43.518Z,69.90
2023-04-21T07:41:12.095Z,66.10
2023-04-21T07:43:40.103Z,66.57
2023-04-21T07:46:07.483Z,68.45
2023-04-21T07:48:36.216Z,64.38
2023-04-21T07:51:03.582Z,68.32
2023-04-21T07:53:31.227Z,71.45
2023-04-21T07:55:58.698Z,64.45
2023-04-21T07:58:26.050Z,64.82
2023-04-21T08:00:53.325Z,64.78
2023-04-21T08:03:23.785Z,63.75
2023-04-21T08:05:52.049Z,61.83
2023-04-21T08:08:21.526Z,63.25
2023-04-21T08:10:48.904Z,64.07
2023-04-21T08:13:16.250Z,51.80
2023-04-21T08:15:43.557Z,62.40
2023-04-21T08:18:10.930Z,60.35
2023-04-21T08:20:38.252Z,57.58
2023-04-21T08:23:05.588Z,56.90
2023-04-21T08:25:32.915Z,57.30
2023-04-21T08:28:00.163Z,58.83
2023-04-21T08:30:28.458Z,64.72
2023-04-21T08:32:56.038Z,57.67
2023-04-21T08:35:23.441Z,62.05
2023-04-21T08:37:51.676Z,63.47
2023-04-21T08:40:20.268Z,59.00
2023-04-21T08:42:47.648Z,56.53
2023-04-21T08:45:14.924Z,55.10
2023-04-21T08:47:42.662Z,56.55
2023-04-21T08:50:13.212Z,51.22
2023-04-21T08:52:40.583Z,55.30
2023-04-21T08:55:08.535Z,52.00
2023-04-21T08:57:35.776Z,53.17
2023-04-21T09:00:06.471Z,49.95
2023-04-21T09:02:35.344Z,49.67
2023-04-21T09:05:03.033Z,47.97
2023-04-21T09:07:31.635Z,52.28
2023-04-21T09:10:00.628Z,45.20
2023-04-21T09:12:28.375Z,52.13
2023-04-21T09:14:58.009Z,46.17
2023-04-21T09:17:32.433Z,46.20
2023-04-21T09:20:18.617Z,49.45
2023-04-21T09:22:46.127Z,47.58
2023-04-21T09:25:17.459Z,48.17
2023-04-21T09:27:44.733Z,47.63
2023-04-21T09:30:12.187Z,43.90
2023-04-21T09:32:42.556Z,42.38
2023-04-21T09:35:10.663Z,42.47
2023-04-21T09:37:38.641Z,36.67
2023-04-21T09:40:06.347Z,39.40
2023-04-21T09:42:37.080Z,37.45
2023-04-21T09:47:40.438Z,38.30
2023-04-21T09:50:12.421Z,36.05
2023-04-21T09:52:40.785Z,34.22
2023-04-21T09:55:14.228Z,38.50
2023-04-21T09:57:42.966Z,36.08
2023-04-21T10:00:12.096Z,35.63
2023-04-21T10:02:44.075Z,38.08
2023-04-21T10:05:14.870Z,36.13
2023-04-21T10:07:42.152Z,36.40
2023-04-21T10:10:13.081Z,36.42
2023-04-21T10:12:40.431Z,32.95
2023-04-21T10:15:27.768Z,35.28
2023-04-21T10:17:55.026Z,35.53
2023-04-21T10:20:22.427Z,29.58
2023-04-21T10:22:58.657Z,33.17
2023-04-21T10:25:30.186Z,32.05
2023-04-21T10:27:57.437Z,33.03
2023-04-21T10:30:28.809Z,30.75
2023-04-21T10:33:06.452Z,30.13
2023-04-21T10:35:52.774Z,30.95
2023-04-21T10:38:34.911Z,31.73
2023-04-21T10:41:40.438Z,32.55
2023-04-21T10:44:12.036Z,30.83
2023-04-21T10:46:40.433Z,32.80
2023-04-21T10:49:09.011Z,31.35
2023-04-21T10:51:54.953Z,35.58
2023-04-21T10:54:22.776Z,31.30
2023-04-21T10:56:52.298Z,31.35
2023-04-21T10:59:19.818Z,28.45
2023-04-21T11:01:47.020Z,31.77
2023-04-21T11:04:18.151Z,29.55
2023-04-21T11:07:06.267Z,30.13
2023-04-21T11:09:33.542Z,33.70
2023-04-21T11:12:02.482Z,32.40
2023-04-21T11:14:30.028Z,29.92
2023-04-21T11:16:57.421Z,33.65
2023-04-21T11:19:26.052Z,23.60
2023-04-21T11:21:56.402Z,30.17
2023-04-21T11:24:23.932Z,34.03
2023-04-21T11:26:52.889Z,34.92
2023-04-21T11:29:20.592Z,31.85
2023-04-21T11:31:49.633Z,36.08
2023-04-21T11:34:17.405Z,36.28
2023-04-21T11:36:45.926Z,34.60
2023-04-21T11:39:14.106Z,35.58
2023-04-21T11:41:42.445Z,36.30
2023-04-21T11:44:10.114Z,37.27
2023-04-21T11:46:37.538Z,31.02
2023-04-21T11:49:05.999Z,30.60
2023-04-21T11:51:34.499Z,33.65
2023-04-21T11:54:01.854Z,33.15
2023-04-21T11:56:29.203Z,31.80
2023-04-21T11:58:56.578Z,33.90
2023-04-21T12:01:23.907Z,33.72
2023-04-21T12:03:55.745Z,35.90
2023-04-21T12:06:24.396Z,31.38
2023-04-21T12:09:01.198Z,36.30
2023-04-21T12:11:29.178Z,31.35
2023-04-21T12:13:59.839Z,30.23
2023-04-21T12:16:27.902Z,32.22
2023-04-21T12:18:58.284Z,31.45
2023-04-21T12:21:29.453Z,30.30
2023-04-21T12:23:56.834Z,29.88
2023-04-21T12:26:24.257Z,28.80
2023-04-21T12:28:52.144Z,26.92
2023-04-21T12:31:19.599Z,31.50
2023-04-21T12:33:47.006Z,33.42
2023-04-21T12:36:14.436Z,31.80
2023-04-21T12:38:41.724Z,29.88
2023-04-21T12:41:09.062Z,32.88
2023-04-21T12:43:36.512Z,30.70
2023-04-21T12:46:03.802Z,30.42
2023-04-21T12:48:31.158Z,32.00
2023-04-21T12:50:58.599Z,35.80
2023-04-21T12:53:25.996Z,30.27
2023-04-21T12:56:04.279Z,26.98
2023-04-21T13:00:59.620Z,29.50
2023-04-21T13:03:27.032Z,29.52
2023-04-21T13:05:54.351Z,31.20
2023-04-21T13:08:24.315Z,26.58
2023-04-21T13:10:52.863Z,33.83
2023-04-21T13:13:21.860Z,28.13
2023-04-21T13:15:49.435Z,29.10
2023-04-21T13:18:16.735Z,27.27
2023-04-21T13:20:43.949Z,28.75
2023-04-21T13:23:13.055Z,26.75
2023-04-21T13:25:40.693Z,28.20
2023-04-21T13:28:08.347Z,32.97
2023-04-21T13:30:36.731Z,26.33
2023-04-21T13:33:04.326Z,24.80
2023-04-21T13:35:31.663Z,23.98
2023-04-21T13:37:59.063Z,26.70
2023-04-21T13:40:26.393Z,29.30
2023-04-21T13:42:53.943Z,28.23
2023-04-21T13:45:21.297Z,28.33
2023-04-21T13:47:48.633Z,28.00
2023-04-21T13:50:16.290Z,30.08
2023-04-21T13:52:43.575Z,25.50
2023-04-21T13:55:11.332Z,26.25
2023-04-21T13:57:38.830Z,24.42
2023-04-21T14:00:06.745Z,24.85
2023-04-21T14:02:34.261Z,25.67
2023-04-21T14:05:02.147Z,24.95
2023-04-21T14:07:29.784Z,25.90
2023-04-21T14:09:57.968Z,26.98
2023-04-21T14:12:28.211Z,33.03
2023-04-21T14:14:55.536Z,27.48
2023-04-21T14:17:23.274Z,28.70
2023-04-21T14:19:52.016Z,30.50
2023-04-21T14:22:21.036Z,29.83
2023-04-21T14:24:48.294Z,31.63
2023-04-21T14:27:15.682Z,32.55
2023-04-21T14:29:43.217Z,34.20
2023-04-21T14:32:10.510Z,32.30
2023-04-21T14:34:37.841Z,34.13
2023-04-21T14:37:05.361Z,33.42
2023-04-21T14:39:33.644Z,39.28
2023-04-21T14:42:01.902Z,33.78
2023-04-21T14:44:29.305Z,34.33
2023-04-21T14:47:08.366Z,35.65
2023-04-21T14:49:37.513Z,33.00
2023-04-21T14:52:04.924Z,36.90
2023-04-21T14:54:32.181Z,34.40
2023-04-21T14:57:18.024Z,32.28
2023-04-21T14:59:47.093Z,34.90
2023-04-21T15:02:14.610Z,31.55
2023-04-21T15:04:42.368Z,32.45
2023-04-21T15:07:09.724Z,34.10
2023-04-21T15:09:37.468Z,31.05
2023-04-21T15:12:05.399Z,35.88
2023-04-21T15:14:32.673Z,32.05
2023-04-21T15:17:00.057Z,29.80
2023-04-21T15:19:27.466Z,29.48
2023-04-21T15:21:54.724Z,27.88
2023-04-21T15:24:22.066Z,29.67
2023-04-21T15:26:49.376Z,32.38
2023-04-21T15:29:16.736Z,28.92
2023-04-21T15:31:44.105Z,31.42
2023-04-21T15:34:11.480Z,32.33
2023-04-21T15:36:38.759Z,29.70
2023-04-21T15:39:06.005Z,33.72
2023-04-21T15:41:33.494Z,28.92
2023-04-21T15:44:01.059Z,31.20
2023-04-21T15:46:28.554Z,31.08
2023-04-21T15:48:56.042Z,30.90
2023-04-21T15:51:23.410Z,30.10
2023-04-21T15:53:50.830Z,28.98
2023-04-21T15:56:18.242Z,31.10
2023-04-21T15:58:45.889Z,31.00
2023-04-21T16:01:13.313Z,28.13
2023-04-21T16:03:40.789Z,28.77
2023-04-21T16:06:08.316Z,29.88
2023-04-21T16:08:35.601Z,30.38
2023-04-21T16:11:02.986Z,31.42
2023-04-21T16:13:30.301Z,29.33
2023-04-21T16:15:57.693Z,28.13
2023-04-21T16:18:25.240Z,27.45
2023-04-21T16:20:53.010Z,30.30
2023-04-21T16:23:20.392Z,30.70
2023-04-21T16:25:48.263Z,31.33
2023-04-21T16:28:16.014Z,35.28
2023-04-21T16:30:43.954Z,28.67
2023-04-21T16:33:11.697Z,26.98
2023-04-21T16:35:39.401Z,31.05
2023-04-21T16:38:07.126Z,32.40
2023-04-21T16:40:34.623Z,29.00
2023-04-21T16:43:02.068Z,26.98
2023-04-21T16:45:30.011Z,27.63
2023-04-21T16:47:58.034Z,25.40
2023-04-21T16:50:25.595Z,29.50
2023-04-21T16:52:52.990Z,29.27
2023-04-21T16:55:20.560Z,31.90
2023-04-21T16:57:47.918Z,30.60
2023-04-21T17:00:15.432Z,32.28
2023-04-21T17:02:42.858Z,32.13
2023-04-21T17:05:12.272Z,32.97
2023-04-21T17:07:39.731Z,29.45
2023-04-21T17:10:07.756Z,27.00
2023-04-21T17:12:35.065Z,34.70
2023-04-21T17:15:02.458Z,30.83
2023-04-21T17:17:33.072Z,35.22
2023-04-21T17:20:00.322Z,35.88
2023-04-21T17:22:27.593Z,30.52
2023-04-21T17:24:55.103Z,31.52
2023-04-21T17:27:22.643Z,31.15
2023-04-21T17:29:49.940Z,31.10
2023-04-21T17:32:17.340Z,31.85
2023-04-21T17:34:44.689Z,32.25
2023-04-21T17:37:12.054Z,29.83
2023-04-21T17:39:39.260Z,31.38
2023-04-21T17:42:06.639Z,28.23
2023-04-21T17:44:33.881Z,27.42
2023-04-21T17:47:02.168Z,33.47
2023-04-21T17:49:29.446Z,31.73
2023-04-21T17:51:56.845Z,31.90
2023-04-21T17:54:24.191Z,30.13
2023-04-21T17:56:51.437Z,35.17
2023-04-21T17:59:18.714Z,32.97
2023-04-21T18:01:46.054Z,32.67
2023-04-21T18:04:13.904Z,34.53
2023-04-21T18:06:41.392Z,32.63
2023-04-21T18:09:09.018Z,34.47
2023-04-21T18:11:36.273Z,31.58
2023-04-21T18:14:03.657Z,29.33
2023-04-21T18:16:31.005Z,32.53
2023-04-21T18:18:58.380Z,28.38
2023-04-21T18:21:26.311Z,29.52
2023-04-21T18:23:53.647Z,29.25
2023-04-21T18:26:20.968Z,31.90
2023-04-21T18:28:48.219Z,30.58
2023-04-21T18:31:15.599Z,34.20
2023-04-21T18:33:43.796Z,35.63
2023-04-21T18:36:11.071Z,34.00
2023-04-21T18:38:38.343Z,37.15
2023-04-21T18:41:05.716Z,16.60
2023-04-21T18:43:33.119Z,10.13
2023-04-21T18:46:00.333Z,5.90
2023-04-21T18:48:27.700Z,4.18
2023-04-21T18:50:55.024Z,2.88
2023-04-21T18:53:22.239Z,2.78
2023-04-21T18:55:49.447Z,2.03
2023-04-21T18:58:16.802Z,2.50
2023-04-21T19:00:44.736Z,2.70
2023-04-21T19:03:12.465Z,2.63
2023-04-21T19:05:40.593Z,2.83
2023-04-21T19:08:11.652Z,3.25
2023-04-21T19:10:39.016Z,3.72
2023-04-21T19:13:06.292Z,2.95
2023-04-21T19:15:33.698Z,3.33
2023-04-21T19:18:01.109Z,3.08
2023-04-21T19:20:28.871Z,3.33
2023-04-21T19:22:56.150Z,2.40
2023-04-21T19:25:23.419Z,3.38
2023-04-21T19:27:51.523Z,4.47
2023-04-21T19:30:18.855Z,2.75
2023-04-21T19:32:46.131Z,2.60
2023-04-21T19:35:13.483Z,3.10
2023-04-21T19:37:40.734Z,3.33
2023-04-21T19:40:08.216Z,3.05
2023-04-21T19:42:35.466Z,17.13
2023-04-21T19:45:02.797Z,4.05
2023-04-21T19:47:30.147Z,4.70
2023-04-21T19:49:57.417Z,4.13
2023-04-21T19:52:24.740Z,5.35
2023-04-21T19:54:51.974Z,5.30
2023-04-21T19:57:19.357Z,3.22
2023-04-21T19:59:46.671Z,3.88
2023-04-21T20:02:13.950Z,2.63
2023-04-21T20:04:42.674Z,4.20
2023-04-21T20:07:10.173Z,3.95
2023-04-21T20:09:37.821Z,3.05
2023-04-21T20:12:05.377Z,3.50
2023-04-21T20:14:32.639Z,4.30
2023-04-21T20:16:59.869Z,4.85
2023-04-21T20:19:30.894Z,3.92
2023-04-21T20:21:58.808Z,3.25
2023-04-21T20:24:26.105Z,4.38
2023-04-21T20:26:53.741Z,5.63
2023-04-21T20:29:21.136Z,3.60
2023-04-21T20:31:48.510Z,3.97
2023-04-21T20:34:15.969Z,3.53
2023-04-21T20:36:43.336Z,3.88
2023-04-21T20:39:10.683Z,5.40
2023-04-21T20:41:38.870Z,4.07
2023-04-21T20:44:06.307Z,4.93
2023-04-21T20:46:34.003Z,5.25
2023-04-21T20:49:01.574Z,5.35
2023-04-21T20:51:29.367Z,4.70
2023-04-21T20:53:56.642Z,4.80
2023-04-21T20:56:24.428Z,4.85
2023-04-21T20:58:51.735Z,8.85
2023-04-21T21:01:19.146Z,82.80
2023-04-21T21:03:46.975Z,20.98
2023-04-21T21:06:14.735Z,8.52
2023-04-21T21:08:42.062Z,8.73
2023-04-21T21:11:09.362Z,5.43
2023-04-21T21:13:36.646Z,17.13
2023-04-21T21:16:03.968Z,10.95
2023-04-21T21:18:34.544Z,8.27
2023-04-21T21:21:02.211Z,13.18
2023-04-21T21:23:29.539Z,10.32
2023-04-21T21:25:58.600Z,10.15
2023-04-21T21:28:25.936Z,18.88
2023-04-21T21:30:53.216Z,8.73
2023-04-21T21:33:20.756Z,9.50
2023-04-21T21:35:47.954Z,13.43
2023-04-21T21:38:15.351Z,12.38
2023-04-21T21:40:42.646Z,13.90
2023-04-21T21:43:10.955Z,14.13
2023-04-21T21:45:38.855Z,16.37
2023-04-21T21:48:06.829Z,11.95
2023-04-21T21:50:34.239Z,8.80
2023-04-21T21:53:01.519Z,11.00
2023-04-21T21:55:28.807Z,10.68
2023-04-21T21:57:56.066Z,11.63
2023-04-21T22:00:23.857Z,10.70
2023-04-21T22:02:51.247Z,10.75
2023-04-21T22:05:18.640Z,11.30
2023-04-21T22:07:46.011Z,15.23
2023-04-21T22:10:13.318Z,14.55
2023-04-21T22:12:41.179Z,17.73
2023-04-21T22:15:08.815Z,17.35
2023-04-21T22:17:37.994Z,21.67
2023-04-21T22:22:36.095Z,21.85
2023-04-21T22:25:03.435Z,27.58
2023-04-21T22:27:33.275Z,29.33
2023-04-21T22:30:01.027Z,34.10
2023-04-21T22:32:29.251Z,32.47
2023-04-21T22:34:56.493Z,30.40
2023-04-21T22:37:23.710Z,34.42
2023-04-21T22:39:51.056Z,38.05
2023-04-21T22:42:18.899Z,32.17
2023-04-21T22:44:46.150Z,32.88
2023-04-21T22:47:13.611Z,32.47
2023-04-21T22:49:41.157Z,31.77
2023-04-21T22:52:08.629Z,32.70
2023-04-21T22:54:35.864Z,32.33
2023-04-21T22:57:03.494Z,34.28
2023-04-21T22:59:31.323Z,32.70
2023-04-21T23:01:58.695Z,33.38
2023-04-21T23:04:26.067Z,32.60
2023-04-21T23:06:53.370Z,33.70
2023-04-21T23:09:20.644Z,33.38
2023-04-21T23:11:47.942Z,34.15
2023-04-21T23:14:15.272Z,34.80
2023-04-21T23:16:42.742Z,33.08
2023-04-21T23:19:10.720Z,33.55
2023-04-21T23:21:39.048Z,31.63
2023-04-21T23:24:06.911Z,34.63
2023-04-21T23:26:34.147Z,33.67
2023-04-21T23:29:01.400Z,35.17
2023-04-21T23:31:28.724Z,35.38
2023-04-21T23:33:56.099Z,35.65
2023-04-21T23:36:23.414Z,40.00
2023-04-21T23:38:51.017Z,36.58
2023-04-21T23:41:18.275Z,36.50
2023-04-21T23:43:45.635Z,38.45
2023-04-21T23:46:12.981Z,38.22
2023-04-21T23:48:40.211Z,38.78
2023-04-21T23:51:07.999Z,40.53
2023-04-21T23:53:35.332Z,37.28
2023-04-21T23:56:02.563Z,32.88
2023-04-21T23:58:29.806Z,37.20
